Time;durP1;ratioP1;P1;durP2;ratioP2;P2;SDS_P1;SDS_P2;PMS_P1;PMS_P2;Temp;Humidity;BMP_temperature;BMP_pressure;BME280_temperature;BME280_humidity;BME280_pressure;Samples;Min_cycle;Max_cycle;Signal;HPM_P1;HPM_P2
2021/05/23 00:00:48;;;;;;;3.22;0.73;;;;;;;10.84;58.65;99514.25;10463462;28;20458;-74
2021/05/23 00:05:50;;;;;;;2.05;0.70;;;;;;;10.73;58.85;99513.84;10464429;28;20041;-73
2021/05/23 00:10:53;;;;;;;2.15;0.65;;;;;;;10.72;58.77;99518.25;10463757;28;20499;-73
2021/05/23 00:15:58;;;;;;;1.52;0.60;;;;;;;10.64;59.08;99514.22;10463375;28;20045;-73
2021/05/23 00:21:00;;;;;;;2.25;0.60;;;;;;;10.52;59.18;99515.56;10465089;28;20091;-73
2021/05/23 00:26:03;;;;;;;1.58;0.40;;;;;;;10.50;59.13;99506.88;10464442;28;20120;-73
2021/05/23 00:31:05;;;;;;;1.55;0.35;;;;;;;10.66;58.81;99515.00;10463907;28;20059;-73
2021/05/23 00:36:07;;;;;;;1.35;0.40;;;;;;;10.69;58.69;99517.50;10465312;28;20037;-72
2021/05/23 00:41:09;;;;;;;1.80;0.38;;;;;;;10.68;59.01;99516.66;10463480;28;20570;-75
2021/05/23 00:46:10;;;;;;;2.08;0.45;;;;;;;10.41;59.78;99520.38;10465748;28;20033;-74
2021/05/23 00:51:12;;;;;;;3.08;1.05;;;;;;;10.39;59.72;99524.84;10461124;28;20086;-74
2021/05/23 00:56:17;;;;;;;0.98;0.40;;;;;;;10.24;60.30;99535.03;10462215;28;20040;-73
2021/05/23 01:01:54;;;;;;;1.30;0.35;;;;;;;10.30;60.47;99541.81;10504446;22;20048;-71
2021/05/23 01:06:59;;;;;;;1.45;0.50;;;;;;;10.28;60.13;99541.03;10468772;28;20079;-71
2021/05/23 01:12:21;;;;;;;3.20;0.60;;;;;;;10.10;60.79;99539.91;10498981;28;20063;-71
2021/05/23 01:17:43;;;;;;;1.48;0.50;;;;;;;10.20;60.55;99548.31;10500999;28;20036;-71
2021/05/23 01:22:54;;;;;;;3.05;0.40;;;;;;;10.17;60.08;99557.13;10500523;28;20040;-71
2021/05/23 01:27:57;;;;;;;3.53;0.60;;;;;;;10.28;59.78;99546.28;10500407;28;20032;-71
2021/05/23 01:33:03;;;;;;;1.08;0.60;;;;;;;10.29;59.98;99540.94;10498928;28;20040;-72
2021/05/23 01:38:10;;;;;;;2.40;0.70;;;;;;;10.27;60.31;99542.78;10499866;28;20055;-72
2021/05/23 01:43:13;;;;;;;2.75;0.80;;;;;;;10.24;60.01;99532.41;10499666;28;20462;-72
2021/05/23 01:48:15;;;;;;;1.88;0.60;;;;;;;10.18;60.39;99544.84;10499442;28;20072;-72
2021/05/23 01:53:16;;;;;;;1.55;0.70;;;;;;;10.13;60.22;99549.44;10498905;28;20490;-71
2021/05/23 01:58:18;;;;;;;2.75;0.60;;;;;;;10.08;60.25;99550.47;10482010;28;20412;-72
2021/05/23 02:03:23;;;;;;;2.80;0.80;;;;;;;10.27;59.92;99547.16;10497146;28;20052;-73
2021/05/23 02:08:26;;;;;;;1.38;0.70;;;;;;;10.31;59.41;99541.78;10497177;28;20569;-72
2021/05/23 02:13:28;;;;;;;2.65;0.70;;;;;;;10.10;60.39;99548.66;10497001;28;20048;-72
2021/05/23 02:18:35;;;;;;;1.90;0.70;;;;;;;10.14;60.09;99543.25;10496502;28;20127;-72
2021/05/23 02:23:47;;;;;;;3.45;0.70;;;;;;;10.33;59.54;99524.16;10498403;28;20497;-71
2021/05/23 02:28:49;;;;;;;4.57;0.95;;;;;;;10.20;59.34;99522.03;10498098;28;20048;-71
2021/05/23 02:33:50;;;;;;;1.67;0.70;;;;;;;10.24;58.56;99521.00;10497560;28;20036;-71
2021/05/23 02:38:52;;;;;;;1.88;0.70;;;;;;;10.35;57.88;99513.56;10496558;28;20393;-70
2021/05/23 02:43:54;;;;;;;4.20;0.80;;;;;;;10.22;58.41;99507.06;10497473;28;20052;-71
2021/05/23 02:48:57;;;;;;;2.47;0.90;;;;;;;10.26;58.24;99509.53;10497603;28;20048;-71
2021/05/23 02:54:01;;;;;;;2.88;1.38;;;;;;;10.21;58.34;99515.88;10496053;28;20072;-71
2021/05/23 02:59:03;;;;;;;1.88;0.73;;;;;;;10.31;57.61;99522.50;10497368;28;20068;-71
2021/05/23 03:04:04;;;;;;;1.67;0.70;;;;;;;10.33;56.91;99523.31;10497124;28;20051;-71
2021/05/23 03:09:06;;;;;;;1.08;0.57;;;;;;;10.28;57.00;99530.50;10495971;28;20493;-71
2021/05/23 03:14:07;;;;;;;2.22;0.63;;;;;;;10.34;57.10;99541.63;10497222;28;20045;-71
2021/05/23 03:19:09;;;;;;;2.17;0.80;;;;;;;10.33;56.50;99549.56;10497533;28;20054;-71
2021/05/23 03:24:11;;;;;;;1.67;0.70;;;;;;;10.38;56.55;99549.41;10496800;28;20047;-71
2021/05/23 03:29:13;;;;;;;1.75;0.55;;;;;;;10.29;56.32;99558.50;10497241;28;20063;-71
2021/05/23 03:34:14;;;;;;;3.08;0.80;;;;;;;10.34;56.35;99556.53;10496836;28;20387;-72
2021/05/23 03:39:16;;;;;;;2.58;0.70;;;;;;;10.36;56.12;99559.97;10497693;28;20054;-71
2021/05/23 03:44:18;;;;;;;1.52;0.60;;;;;;;10.32;56.59;99564.50;10497494;28;20044;-72
2021/05/23 03:49:19;;;;;;;1.65;0.70;;;;;;;10.44;55.64;99573.66;10496316;28;20049;-72
2021/05/23 03:54:21;;;;;;;1.63;0.68;;;;;;;10.42;56.10;99586.00;10495490;28;20397;-72
2021/05/23 03:59:23;;;;;;;3.55;0.60;;;;;;;10.46;55.96;99579.72;10501605;28;20448;-72
2021/05/23 04:04:24;;;;;;;1.83;0.70;;;;;;;10.49;56.20;99584.88;10504103;28;20128;-72
2021/05/23 04:09:26;;;;;;;1.77;0.68;;;;;;;10.51;55.83;99588.28;10503253;28;20062;-72
2021/05/23 04:14:28;;;;;;;1.60;0.60;;;;;;;10.74;55.63;99597.88;10504834;28;20048;-72
2021/05/23 04:19:30;;;;;;;1.98;0.60;;;;;;;10.93;55.16;99611.16;10503014;28;20044;-72
2021/05/23 04:24:36;;;;;;;1.58;0.93;;;;;;;11.01;54.81;99616.13;10503344;28;20044;-72
2021/05/23 04:29:38;;;;;;;3.22;0.63;;;;;;;11.11;54.68;99626.22;10503734;28;20454;-71
2021/05/23 04:34:39;;;;;;;3.05;1.13;;;;;;;11.32;54.33;99639.41;10502673;28;20482;-72
2021/05/23 04:39:42;;;;;;;1.85;0.50;;;;;;;11.35;54.84;99640.13;10500934;28;20049;-72
2021/05/23 04:44:43;;;;;;;1.20;0.32;;;;;;;11.52;54.25;99647.34;10501341;28;20041;-72
2021/05/23 04:49:45;;;;;;;1.52;0.60;;;;;;;11.40;55.30;99647.84;10502450;28;20466;-72
2021/05/23 04:54:46;;;;;;;2.22;0.60;;;;;;;11.68;53.77;99651.94;10501559;28;20123;-72
2021/05/23 04:59:50;;;;;;;2.80;0.65;;;;;;;11.96;52.73;99655.16;10501395;28;20127;-72
2021/05/23 05:04:53;;;;;;;4.28;0.60;;;;;;;12.24;51.82;99656.56;10501272;28;20048;-72
2021/05/23 05:09:54;;;;;;;2.80;0.70;;;;;;;12.35;51.87;99649.03;10499081;28;20041;-72
2021/05/23 05:14:56;;;;;;;5.70;1.08;;;;;;;12.61;51.11;99651.31;10501327;28;20094;-72
2021/05/23 05:19:58;;;;;;;2.75;0.52;;;;;;;12.89;50.90;99657.97;10500753;28;20040;-72
2021/05/23 05:24:59;;;;;;;1.33;0.50;;;;;;;13.00;50.23;99654.81;10498997;28;20052;-72
2021/05/23 05:30:02;;;;;;;1.23;0.65;;;;;;;12.96;49.89;99661.16;10500048;28;20049;-72
2021/05/23 05:35:04;;;;;;;1.85;0.50;;;;;;;12.91;49.79;99665.81;10499892;28;20446;-73
2021/05/23 05:40:07;;;;;;;2.85;0.65;;;;;;;13.03;50.08;99663.44;10500406;28;20131;-72
2021/05/23 05:45:09;;;;;;;2.40;0.70;;;;;;;13.22;49.55;99670.47;10498060;28;20044;-73
2021/05/23 05:50:12;;;;;;;2.25;0.52;;;;;;;13.24;49.80;99666.88;10498923;28;20512;-71
2021/05/23 05:55:13;;;;;;;1.73;0.50;;;;;;;13.48;48.43;99669.22;10498969;28;20606;-72
2021/05/23 06:00:15;;;;;;;1.90;0.70;;;;;;;13.55;48.54;99684.72;10498679;28;20051;-72
2021/05/23 06:05:17;;;;;;;1.42;0.50;;;;;;;13.82;48.85;99681.63;10500112;28;20043;-72
2021/05/23 06:10:19;;;;;;;2.00;0.60;;;;;;;14.05;48.38;99691.00;10498548;28;20055;-72
2021/05/23 06:15:21;;;;;;;0.93;0.43;;;;;;;14.10;47.59;99684.53;10498741;28;20033;-72
2021/05/23 06:20:22;;;;;;;1.83;0.50;;;;;;;13.87;48.32;99692.81;10497774;28;20413;-72
2021/05/23 06:25:24;;;;;;;1.73;0.60;;;;;;;14.08;48.73;99698.78;10496859;28;20055;-72
2021/05/23 06:30:25;;;;;;;1.17;0.50;;;;;;;14.20;48.84;99692.84;10497013;28;20072;-72
2021/05/23 06:35:27;;;;;;;0.68;0.50;;;;;;;14.22;48.52;99708.66;10498510;28;20051;-72
2021/05/23 06:40:32;;;;;;;3.55;0.70;;;;;;;14.42;48.32;99712.88;10499133;28;20041;-72
2021/05/23 06:45:33;;;;;;;2.40;0.77;;;;;;;14.53;48.07;99714.06;10498057;28;20068;-72
2021/05/23 06:50:37;;;;;;;3.08;0.70;;;;;;;14.50;46.87;99718.66;10496496;28;20123;-72
2021/05/23 06:55:39;;;;;;;1.58;0.40;;;;;;;14.74;47.24;99719.13;10497975;28;20052;-72
2021/05/23 07:00:41;;;;;;;1.63;0.57;;;;;;;14.79;47.42;99715.31;10488206;22;20037;-75
2021/05/23 07:05:42;;;;;;;1.10;0.50;;;;;;;15.26;46.58;99700.38;10457790;28;20057;-76
2021/05/23 07:10:44;;;;;;;2.55;0.60;;;;;;;15.72;47.98;99714.53;10457625;28;20051;-75
2021/05/23 07:15:46;;;;;;;4.78;0.70;;;;;;;15.57;45.81;99718.03;10456810;28;20124;-74
2021/05/23 07:20:48;;;;;;;1.95;0.60;;;;;;;15.17;46.53;99735.31;10458548;28;20044;-74
2021/05/23 07:25:50;;;;;;;1.65;0.50;;;;;;;15.25;48.21;99728.66;10458531;28;20049;-75
2021/05/23 07:30:51;;;;;;;1.83;0.70;;;;;;;15.49;47.05;99737.00;10457420;28;20055;-75
2021/05/23 07:35:53;;;;;;;2.55;0.70;;;;;;;15.13;46.36;99750.50;10465822;28;20108;-74
2021/05/23 07:40:55;;;;;;;1.38;0.52;;;;;;;14.98;46.79;99746.06;10464454;28;20465;-74
2021/05/23 07:45:57;;;;;;;0.93;0.40;;;;;;;15.46;45.85;99755.72;10464926;28;20112;-74
2021/05/23 07:50:59;;;;;;;1.35;0.40;;;;;;;15.22;46.34;99751.78;10465474;28;20045;-75
2021/05/23 07:56:01;;;;;;;1.85;0.40;;;;;;;15.29;46.39;99753.16;10464290;28;20096;-75
2021/05/23 08:01:03;;;;;;;1.27;0.30;;;;;;;15.47;46.13;99759.22;10465051;28;20059;-76
2021/05/23 08:06:05;;;;;;;3.10;0.52;;;;;;;15.77;45.81;99754.03;10466051;28;20402;-75
2021/05/23 08:11:07;;;;;;;2.15;0.40;;;;;;;15.67;44.48;99756.34;10465949;28;20490;-73
2021/05/23 08:16:10;;;;;;;1.52;0.50;;;;;;;15.90;44.52;99755.03;10464932;28;20116;-75
2021/05/23 08:21:11;;;;;;;1.80;0.40;;;;;;;16.12;44.56;99755.47;10463796;28;20174;-74
2021/05/23 08:26:13;;;;;;;1.75;0.40;;;;;;;16.40;44.93;99759.13;10463192;28;20510;-75
2021/05/23 08:31:15;;;;;;;1.42;0.47;;;;;;;17.05;43.55;99753.41;10463752;28;20124;-74
2021/05/23 08:36:17;;;;;;;1.00;0.30;;;;;;;16.52;43.60;99761.03;10462208;28;20501;-75
2021/05/23 08:41:20;;;;;;;1.30;0.38;;;;;;;16.46;43.46;99776.47;10463410;28;20128;-74
2021/05/23 08:46:27;;;;;;;1.38;0.52;;;;;;;16.80;42.29;99770.84;10463201;28;20418;-74
2021/05/23 08:51:29;;;;;;;2.10;0.70;;;;;;;16.51;42.74;99764.66;10462103;28;20045;-75
2021/05/23 08:56:31;;;;;;;0.77;0.47;;;;;;;16.75;45.00;99770.28;10464728;28;20098;-75
2021/05/23 09:01:33;;;;;;;1.30;0.47;;;;;;;16.87;42.81;99776.66;10462038;28;20044;-73
2021/05/23 09:06:37;;;;;;;1.45;0.57;;;;;;;17.54;41.97;99779.50;10462701;28;20104;-74
2021/05/23 09:11:49;;;;;;;0.90;0.40;;;;;;;18.00;40.92;99777.34;10461525;28;20051;-75
2021/05/23 09:16:51;;;;;;;1.75;0.40;;;;;;;17.19;42.21;99776.44;10462066;28;20048;-75
2021/05/23 09:21:53;;;;;;;0.85;0.38;;;;;;;17.33;41.57;99779.91;10462915;28;20283;-74
2021/05/23 09:27:04;;;;;;;1.00;0.50;;;;;;;17.25;40.71;99778.69;10459979;28;20055;-75
2021/05/23 09:32:18;;;;;;;0.60;0.30;;;;;;;17.87;40.56;99774.66;10460079;28;20120;-74
2021/05/23 09:37:20;;;;;;;1.17;0.30;;;;;;;18.41;40.57;99766.56;10460911;28;20041;-74
2021/05/23 09:42:24;;;;;;;2.67;0.55;;;;;;;18.70;39.61;99763.75;10459968;28;20144;-74
2021/05/23 09:47:26;;;;;;;2.90;0.52;;;;;;;18.48;39.86;99775.00;10461046;28;20056;-74
2021/05/23 09:52:38;;;;;;;1.95;0.43;;;;;;;17.95;39.91;99784.78;10460089;28;20047;-75
2021/05/23 09:57:40;;;;;;;1.77;0.60;;;;;;;18.62;38.32;99777.56;10459751;28;20107;-74
2021/05/23 10:02:58;;;;;;;1.15;0.35;;;;;;;18.04;39.61;99786.00;10459042;28;20041;-75
2021/05/23 10:08:12;;;;;;;1.25;0.40;;;;;;;17.80;39.51;99791.13;10460175;28;20491;-74
2021/05/23 10:13:15;;;;;;;1.02;0.43;;;;;;;17.77;40.53;99801.97;10459327;28;20049;-75
2021/05/23 10:18:20;;;;;;;0.80;0.45;;;;;;;17.60;40.53;99801.19;10458624;28;20181;-74
2021/05/23 10:23:27;;;;;;;1.33;0.40;;;;;;;17.46;40.90;99803.06;10458814;28;20124;-75
2021/05/23 10:28:31;;;;;;;0.93;0.28;;;;;;;17.26;40.63;99810.47;10460642;28;20071;-74
2021/05/23 10:33:53;;;;;;;0.63;0.28;;;;;;;16.86;40.65;99812.09;10459934;28;20115;-74
2021/05/23 10:38:57;;;;;;;1.60;0.40;;;;;;;16.66;41.13;99815.94;10459403;28;20045;-75
2021/05/23 10:44:03;;;;;;;0.43;0.28;;;;;;;16.28;43.73;99823.50;10459341;28;20041;-74
2021/05/23 10:49:07;;;;;;;1.77;0.80;;;;;;;16.10;45.72;99828.94;10459940;28;20052;-75
2021/05/23 10:54:15;;;;;;;2.75;0.88;;;;;;;16.10;46.83;99823.63;10457707;28;20137;-75
2021/05/23 10:59:26;;;;;;;3.03;0.68;;;;;;;16.74;44.86;99815.50;10458775;28;20049;-76
2021/05/23 11:04:38;;;;;;;3.15;2.85;;;;;;;18.05;44.63;99791.19;10458047;28;20490;-74
2021/05/23 11:09:43;;;;;;;0.93;0.47;;;;;;;18.54;41.40;99806.50;10464910;28;20119;-67
2021/05/23 11:14:56;;;;;;;1.67;0.30;;;;;;;18.62;38.59;99796.19;10467870;28;20127;-67
2021/05/23 11:19:58;;;;;;;1.08;0.30;;;;;;;18.66;37.40;99803.00;10465362;28;20072;-68
2021/05/23 11:25:00;;;;;;;0.68;0.30;;;;;;;17.96;39.21;99826.38;10466084;28;20441;-67
2021/05/23 11:30:09;;;;;;;1.13;0.30;;;;;;;17.31;40.15;99852.69;10467938;28;20083;-66
2021/05/23 11:35:21;;;;;;;0.70;0.30;;;;;;;16.10;45.25;99870.50;10468019;28;20068;-68
2021/05/23 11:40:39;;;;;;;2.08;0.60;;;;;;;15.01;50.91;99889.69;10509566;28;20072;-67
2021/05/23 11:45:54;;;;;;;3.88;0.50;;;;;;;14.61;50.04;99894.38;10508188;28;20494;-67
2021/05/23 11:50:56;;;;;;;1.25;0.40;;;;;;;14.35;50.89;99894.81;10509606;28;20413;-72
2021/05/23 11:55:58;;;;;;;1.20;0.40;;;;;;;14.14;53.99;99924.00;10509461;28;20479;-73
2021/05/23 12:01:11;;;;;;;1.23;0.20;;;;;;;13.11;58.74;99908.50;10509471;28;20037;-72
2021/05/23 12:06:17;;;;;;;2.45;0.40;;;;;;;13.12;60.65;99900.50;10510311;28;20044;-72
2021/05/23 12:11:20;;;;;;;4.13;0.75;;;;;;;14.06;62.66;99897.06;10493662;28;20482;-71
2021/05/23 12:16:23;;;;;;;3.63;0.70;;;;;;;15.45;60.40;99885.59;10491795;28;20041;-71
2021/05/23 12:21:29;;;;;;;1.17;0.40;;;;;;;16.13;52.58;99886.25;10508719;28;20080;-72
2021/05/23 12:26:31;;;;;;;0.67;0.30;;;;;;;16.83;48.73;99892.78;10509348;28;20079;-73
2021/05/23 12:31:35;;;;;;;0.60;0.32;;;;;;;16.96;48.83;99895.56;10509500;28;20336;-72
2021/05/23 12:36:37;;;;;;;0.95;0.30;;;;;;;17.73;47.27;99880.16;10507680;28;20036;-73
2021/05/23 12:41:51;;;;;;;1.27;0.30;;;;;;;17.84;44.12;99888.31;10508043;28;20045;-73
2021/05/23 12:46:53;;;;;;;1.15;0.30;;;;;;;17.80;44.74;99884.19;10508081;28;20040;-74
2021/05/23 12:51:56;;;;;;;1.33;0.20;;;;;;;18.06;43.24;99879.81;10489184;28;20139;-73
2021/05/23 12:57:04;;;;;;;0.63;0.20;;;;;;;18.31;39.96;99877.25;10507628;28;20047;-74
2021/05/23 13:02:07;;;;;;;0.70;0.10;;;;;;;18.37;38.56;99874.22;10584086;22;20039;-67
2021/05/23 13:07:09;;;;;;;0.35;0.20;;;;;;;18.35;38.74;99872.59;10584497;28;20035;-67
2021/05/23 13:12:13;;;;;;;0.38;0.10;;;;;;;18.50;40.05;99892.84;10626971;27;20054;-68
2021/05/23 13:17:23;;;;;;;0.93;0.40;;;;;;;17.77;41.92;99901.19;10627375;27;20104;-68
2021/05/23 13:22:29;;;;;;;0.77;0.15;;;;;;;16.74;46.42;99919.03;10608092;27;20041;-67
2021/05/23 13:27:32;;;;;;;1.45;0.50;;;;;;;16.28;50.03;99930.44;10626425;27;20549;-67
2021/05/23 13:32:33;;;;;;;0.85;0.20;;;;;;;16.60;47.54;99922.44;10588820;27;20043;-67
2021/05/23 13:37:36;;;;;;;1.17;0.20;;;;;;;16.69;46.17;99915.72;10625859;27;20032;-67
2021/05/23 13:42:38;;;;;;;1.02;0.20;;;;;;;16.88;45.96;99913.75;10606440;27;20047;-67
2021/05/23 13:47:40;;;;;;;1.52;0.40;;;;;;;16.83;45.76;99929.09;10625557;27;20118;-68
2021/05/23 13:52:42;;;;;;;1.48;0.35;;;;;;;16.37;49.50;99952.94;10606972;27;20071;-67
2021/05/23 13:57:47;;;;;;;2.33;0.60;;;;;;;14.05;55.64;100002.88;10624895;27;20039;-66
2021/05/23 14:03:14;;;;;;;6.47;0.50;;;;;;;11.79;62.82;99985.03;10624977;27;20537;-67
2021/05/23 14:08:16;;;;;;;0.55;0.38;;;;;;;11.88;66.43;99972.47;10626230;27;20069;-67
2021/05/23 14:13:21;;;;;;;0.40;0.30;;;;;;;12.29;63.62;99970.84;10624276;27;20044;-68
2021/05/23 14:18:23;;;;;;;1.77;0.35;;;;;;;12.84;62.46;99963.31;10624977;27;20067;-67
2021/05/23 14:23:25;;;;;;;1.63;0.38;;;;;;;14.04;62.79;99965.00;10624150;27;20043;-67
2021/05/23 14:28:27;;;;;;;1.60;0.50;;;;;;;15.32;60.71;99965.72;10605248;27;20077;-67
2021/05/23 14:33:29;;;;;;;0.98;0.50;;;;;;;15.95;61.83;99964.19;10623953;27;20077;-68
2021/05/23 14:38:30;;;;;;;0.70;0.30;;;;;;;16.25;54.58;99966.94;10624039;27;20047;-68
2021/05/23 14:43:35;;;;;;;0.85;0.50;;;;;;;16.72;57.14;99963.34;10623821;27;20047;-68
2021/05/23 14:48:37;;;;;;;0.80;0.47;;;;;;;16.78;52.55;99955.91;10625217;27;20586;-68
2021/05/23 14:53:38;;;;;;;0.80;0.30;;;;;;;16.93;51.91;99964.75;10625106;27;20122;-67
2021/05/23 14:58:41;;;;;;;0.73;0.50;;;;;;;17.30;50.06;99965.22;10625705;28;20039;-68
2021/05/23 15:03:43;;;;;;;0.68;0.40;;;;;;;17.11;49.70;99966.31;10625500;28;20066;-68
2021/05/23 15:08:44;;;;;;;2.55;1.10;;;;;;;16.76;50.81;99973.72;10625176;28;20114;-68
2021/05/23 15:13:46;;;;;;;1.15;0.45;;;;;;;17.28;48.56;99975.94;10606014;28;20043;-68
2021/05/23 15:18:48;;;;;;;1.45;0.43;;;;;;;17.55;48.05;99984.03;10624604;28;20090;-68
2021/05/23 15:23:50;;;;;;;0.40;0.20;;;;;;;17.64;45.02;99987.94;10606723;28;20122;-69
2021/05/23 15:34:34;;;;;;;0.55;0.20;;;;;;;17.88;41.16;99996.19;10606608;28;20480;-68
2021/05/23 15:39:36;;;;;;;0.50;0.30;;;;;;;17.73;44.21;99995.34;10624494;28;20058;-69
2021/05/23 15:44:37;;;;;;;0.28;0.20;;;;;;;17.67;43.80;99995.72;10605198;28;20039;-69
2021/05/23 15:49:42;;;;;;;0.50;0.22;;;;;;;18.59;40.23;99990.75;10623760;28;20043;-68
2021/05/23 15:54:44;;;;;;;0.50;0.20;;;;;;;18.31;39.70;99982.84;10607254;27;20046;-66
2021/05/23 15:59:46;;;;;;;0.70;0.70;;;;;;;17.84;42.13;99990.25;10628988;27;20387;-68
2021/05/23 16:04:49;;;;;;;0.40;0.28;;;;;;;18.17;41.43;99981.06;10630314;27;20043;-68
2021/05/23 16:09:51;;;;;;;0.30;0.30;;;;;;;17.81;41.90;99982.44;10611897;27;20043;-68
2021/05/23 16:14:53;;;;;;;0.57;0.32;;;;;;;17.33;42.49;99980.97;10630044;27;20177;-67
2021/05/23 16:19:54;;;;;;;0.52;0.35;;;;;;;17.17;44.32;99988.16;10629060;27;20047;-67
2021/05/23 16:24:56;;;;;;;1.23;0.30;;;;;;;17.01;44.38;99986.41;10610864;27;20050;-68
2021/05/23 16:29:58;;;;;;;1.25;1.00;;;;;;;17.01;43.58;99983.75;10611803;27;20046;-67
2021/05/23 16:34:59;;;;;;;1.40;0.50;;;;;;;17.12;43.55;99988.41;10609692;27;20039;-68
2021/05/23 16:40:02;;;;;;;0.40;0.30;;;;;;;16.60;43.91;99989.66;10629207;27;20051;-69
2021/05/23 16:45:05;;;;;;;1.30;0.60;;;;;;;16.61;44.11;99991.34;10628885;27;20039;-67
2021/05/23 16:50:07;;;;;;;1.75;0.60;;;;;;;16.54;43.91;99997.94;10628551;27;20054;-69
2021/05/23 16:55:10;;;;;;;0.82;0.40;;;;;;;16.58;44.64;100001.28;10628984;27;20399;-69
2021/05/23 17:00:13;;;;;;;0.50;0.40;;;;;;;16.31;44.99;100011.66;10627122;27;20122;-68
2021/05/23 17:05:15;;;;;;;1.30;0.63;;;;;;;16.23;45.43;100008.56;10609661;27;20126;-69
2021/05/23 17:10:17;;;;;;;0.40;0.40;;;;;;;15.99;45.51;100011.66;10627191;27;20035;-70
2021/05/23 17:15:20;;;;;;;2.55;0.90;;;;;;;15.90;46.17;100020.09;10628189;27;20046;-69
2021/05/23 17:20:24;;;;;;;0.80;0.50;;;;;;;16.11;45.21;100028.66;10627177;27;20126;-69
2021/05/23 17:25:25;;;;;;;0.70;0.60;;;;;;;16.12;45.86;100028.59;10627149;27;20114;-69
2021/05/23 17:30:29;;;;;;;1.02;0.50;;;;;;;16.04;46.78;100032.59;10626801;27;20404;-69
2021/05/23 17:35:31;;;;;;;1.67;0.55;;;;;;;16.21;45.19;100027.22;10626367;27;20035;-69
2021/05/23 17:40:33;;;;;;;0.68;0.50;;;;;;;16.12;45.39;100033.03;10627145;27;20134;-70
2021/05/23 17:45:35;;;;;;;0.82;0.47;;;;;;;15.97;45.87;100034.72;10626251;27;20035;-69
2021/05/23 17:50:37;;;;;;;0.52;0.30;;;;;;;16.13;44.67;100030.28;10607766;27;20078;-69
2021/05/23 17:55:38;;;;;;;1.02;0.55;;;;;;;15.74;46.15;100045.69;10625637;27;20047;-68
2021/05/23 18:00:40;;;;;;;0.95;0.43;;;;;;;15.43;48.19;100055.22;10625632;27;20047;-69
2021/05/23 18:05:42;;;;;;;0.60;0.57;;;;;;;15.14;47.54;100054.91;10626125;27;20035;-69
2021/05/23 18:10:43;;;;;;;0.75;0.45;;;;;;;15.36;46.92;100059.97;10625204;27;20070;-69
2021/05/23 18:15:48;;;;;;;0.40;0.40;;;;;;;15.00;48.30;100067.94;10607467;27;20095;-69
2021/05/23 18:20:51;;;;;;;1.48;0.60;;;;;;;14.73;49.22;100075.44;10626542;27;20039;-70
2021/05/23 18:25:54;;;;;;;0.70;0.50;;;;;;;14.57;50.37;100080.63;10606241;27;20436;-71
2021/05/23 18:30:56;;;;;;;1.77;0.70;;;;;;;14.32;52.33;100080.88;10625114;27;20035;-69
2021/05/23 18:35:57;;;;;;;2.15;1.30;;;;;;;14.29;53.63;100082.81;10625360;27;20050;-70
2021/05/23 18:40:59;;;;;;;3.88;1.60;;;;;;;14.41;54.63;100094.63;10624782;27;20050;-70
2021/05/23 18:46:01;;;;;;;2.63;1.67;;;;;;;14.07;54.94;100102.28;10624552;27;20039;-69
2021/05/23 18:51:06;;;;;;;4.90;1.52;;;;;;;13.79;55.69;100101.81;10625114;27;20118;-69
2021/05/23 18:56:07;;;;;;;2.95;1.30;;;;;;;13.66;55.93;100105.91;10624792;27;20039;-71
2021/05/23 19:01:09;;;;;;;1.80;1.30;;;;;;;13.54;56.05;100118.72;10622769;22;20036;-72
2021/05/23 19:06:10;;;;;;;1.20;1.10;;;;;;;13.57;55.71;100123.88;10587630;28;20039;-72
2021/05/23 19:11:12;;;;;;;1.80;1.30;;;;;;;13.37;55.69;100129.16;10630796;28;20409;-72
2021/05/23 19:16:14;;;;;;;1.73;1.40;;;;;;;13.13;56.37;100144.16;10611176;28;20063;-72
2021/05/23 19:21:16;;;;;;;2.40;1.40;;;;;;;12.95;55.96;100145.75;10638200;28;20061;-72
2021/05/23 19:26:17;;;;;;;2.78;1.50;;;;;;;12.99;56.68;100155.28;10629984;27;20042;-71
2021/05/23 19:31:19;;;;;;;2.13;1.35;;;;;;;12.73;58.14;100163.34;10638038;27;20043;-72
2021/05/23 19:36:26;;;;;;;2.97;1.92;;;;;;;12.44;59.18;100172.34;10639038;27;20039;-72
2021/05/23 19:41:28;;;;;;;2.75;1.50;;;;;;;12.26;59.30;100184.44;10618573;27;20049;-71
2021/05/23 19:46:32;;;;;;;2.20;1.58;;;;;;;12.17;58.38;100182.13;10617916;27;20122;-72
2021/05/23 19:51:40;;;;;;;4.40;3.25;;;;;;;12.48;55.87;100182.72;10638593;27;20126;-71
2021/05/23 19:56:42;;;;;;;4.18;2.17;;;;;;;12.53;55.67;100187.88;10603939;27;20039;-72
2021/05/23 20:01:47;;;;;;;2.65;1.98;;;;;;;12.70;56.26;100192.47;10637409;27;20043;-71
2021/05/23 20:06:49;;;;;;;3.17;2.35;;;;;;;12.74;55.44;100199.34;10637174;27;20519;-72
2021/05/23 20:11:51;;;;;;;3.22;2.30;;;;;;;12.73;54.91;100201.13;10640998;27;20126;-71
2021/05/23 20:16:53;;;;;;;3.63;2.25;;;;;;;12.85;54.48;100205.09;10644092;27;20039;-73
2021/05/23 20:22:03;;;;;;;2.35;1.63;;;;;;;13.10;53.39;100204.97;10621039;27;20047;-71
2021/05/23 20:27:09;;;;;;;2.45;1.70;;;;;;;13.14;53.14;100215.34;10625231;27;20042;-73
2021/05/23 20:32:14;;;;;;;2.88;1.92;;;;;;;12.74;54.46;100221.31;10638949;27;20053;-71
2021/05/23 20:37:17;;;;;;;3.20;2.42;;;;;;;12.56;56.04;100227.28;10643227;27;20052;-72
2021/05/23 20:42:22;;;;;;;2.83;2.53;;;;;;;12.65;55.52;100220.81;10622672;27;20106;-72
2021/05/23 20:47:27;;;;;;;2.85;2.53;;;;;;;12.90;54.32;100234.78;10619985;27;20036;-71
2021/05/23 20:52:29;;;;;;;5.18;2.78;;;;;;;12.66;55.38;100235.69;10644491;27;20050;-73
2021/05/23 20:57:31;;;;;;;2.30;2.10;;;;;;;12.59;54.79;100235.94;10619613;27;20066;-71
2021/05/23 21:02:34;;;;;;;4.22;1.40;;;;;;;12.66;55.07;100241.88;10640684;27;20054;-73
2021/05/23 21:07:36;;;;;;;2.13;1.70;;;;;;;12.80;53.99;100247.47;10638392;27;20404;-73
2021/05/23 21:12:38;;;;;;;2.70;1.90;;;;;;;12.82;53.05;100252.69;10604617;27;20051;-71
2021/05/23 21:17:40;;;;;;;3.00;1.83;;;;;;;12.84;53.58;100254.38;10636643;27;20480;-71
2021/05/23 21:22:43;;;;;;;2.50;1.90;;;;;;;12.81;53.52;100254.47;10619729;27;20066;-71
2021/05/23 21:27:45;;;;;;;3.55;2.00;;;;;;;12.72;53.96;100268.00;10635371;27;20045;-71
2021/05/23 21:32:47;;;;;;;2.17;1.67;;;;;;;12.75;53.43;100272.28;10633685;27;20043;-72
2021/05/23 21:37:48;;;;;;;1.90;1.40;;;;;;;12.72;53.29;100272.41;10633557;27;20035;-72
2021/05/23 21:42:50;;;;;;;2.03;1.55;;;;;;;12.71;54.06;100279.47;10617877;27;20126;-70
2021/05/23 21:47:53;;;;;;;3.20;1.65;;;;;;;12.66;53.88;100278.78;10634577;27;20043;-71
2021/05/23 21:53:10;;;;;;;2.25;1.67;;;;;;;12.60;54.01;100285.13;10632444;27;20381;-72
2021/05/23 21:58:12;;;;;;;2.42;1.58;;;;;;;12.51;53.85;100284.59;10600581;27;20492;-71
2021/05/23 22:03:14;;;;;;;2.80;1.80;;;;;;;12.52;54.28;100296.84;10635490;27;20051;-72
2021/05/23 22:08:16;;;;;;;2.40;1.35;;;;;;;12.38;54.68;100294.72;10635224;27;20435;-71
2021/05/23 22:13:18;;;;;;;1.85;1.40;;;;;;;12.28;54.58;100296.81;10634105;27;20569;-71
2021/05/23 22:18:21;;;;;;;1.98;1.45;;;;;;;12.06;55.78;100311.63;10610246;27;20504;-71
2021/05/23 22:23:23;;;;;;;2.50;1.30;;;;;;;12.00;55.22;100302.16;10611696;27;20055;-71
2021/05/23 22:28:25;;;;;;;1.75;1.30;;;;;;;12.05;55.35;100302.88;10613041;27;20039;-70
2021/05/23 22:33:27;;;;;;;2.70;1.30;;;;;;;11.99;55.30;100315.38;10629231;27;20039;-70
2021/05/23 22:38:33;;;;;;;1.77;1.25;;;;;;;11.95;55.31;100305.84;10628461;27;20396;-71
2021/05/23 22:43:39;;;;;;;1.35;1.25;;;;;;;11.90;55.32;100306.00;10628921;27;20043;-71
2021/05/23 22:48:41;;;;;;;2.40;1.23;;;;;;;11.75;55.83;100312.59;10631901;27;20047;-71
2021/05/23 22:53:43;;;;;;;1.92;1.00;;;;;;;11.58;56.64;100314.91;10628550;27;20457;-70
2021/05/23 22:58:44;;;;;;;2.08;1.05;;;;;;;11.57;56.36;100326.34;10610919;28;20036;-72
2021/05/23 23:04:01;;;;;;;2.53;1.30;;;;;;;11.47;56.87;100327.56;10635810;27;20043;-71
2021/05/23 23:09:05;;;;;;;4.35;1.20;;;;;;;11.38;57.07;100339.22;10643024;27;20035;-71
2021/05/23 23:14:08;;;;;;;2.13;1.25;;;;;;;11.34;57.43;100337.59;10644527;27;20043;-70
2021/05/23 23:19:10;;;;;;;1.35;1.15;;;;;;;11.21;57.41;100334.47;10641251;27;20031;-70
2021/05/23 23:24:12;;;;;;;1.73;1.27;;;;;;;11.06;57.48;100332.25;10642404;27;20047;-71
2021/05/23 23:29:14;;;;;;;2.35;1.10;;;;;;;11.05;57.07;100327.91;10641845;27;20042;-71